Terminal Aerodrome Forecast
Issued by NWS

Home | Current Version | Previous Version | Text Only | Print | Product List | Glossary On
Versions: 1 2 3 4 5 6 7 8 9 10 11 12 13 14 15 16
000
FTUS43 KICT 241100
TAFSLN
TAF
KSLN 241138Z 2412/2512 14005KT P6SM SKC
     FM241500 16010KT P6SM SKC
     FM241700 17012G20KT P6SM SKC
     FM241900 18018G25KT P6SM SKC
     FM250100 17012KT P6SM SCT250=

USA.gov is the U.S. government's official web portal to all federal, state and local government web resources and services.